createdAt,value
2022-09-10T00:00:10.801Z,99062.88
2022-09-10T00:00:56.269Z,99063.77
2022-09-10T00:01:33.871Z,99062.68
2022-09-10T00:02:05.750Z,99065.30
2022-09-10T00:02:38.253Z,99059.57
2022-09-10T00:03:10.957Z,99062.70
2022-09-10T00:03:43.255Z,99063.04
2022-09-10T00:04:15.804Z,99063.56
2022-09-10T00:04:47.621Z,99061.21
2022-09-10T00:05:20.886Z,99062.00
2022-09-10T00:05:52.997Z,99062.27
2022-09-10T00:06:27.288Z,99062.27
2022-09-10T00:06:59.190Z,99063.94
2022-09-10T00:07:32.261Z,99060.96
2022-09-10T00:08:04.692Z,99060.35
2022-09-10T00:08:37.972Z,99061.77
2022-09-10T00:09:12.449Z,99060.86
2022-09-10T00:09:45.131Z,99060.10
2022-09-10T00:10:18.313Z,99062.79
2022-09-10T00:10:51.573Z,99056.67
2022-09-10T00:11:25.738Z,99057.84
2022-09-10T00:11:57.665Z,99058.19
2022-09-10T00:12:29.526Z,99059.04
2022-09-10T00:13:01.558Z,99057.53
2022-09-10T00:13:34.015Z,99056.80
2022-09-10T00:14:09.298Z,99057.25
2022-09-10T00:14:41.176Z,99053.58
2022-09-10T00:15:14.099Z,99055.45
2022-09-10T00:15:52.230Z,99055.57
2022-09-10T00:16:25.560Z,99054.44
2022-09-10T00:16:57.392Z,99052.44
2022-09-10T00:17:29.188Z,99052.08
2022-09-10T00:18:00.986Z,99051.88
2022-09-10T00:18:34.169Z,99051.67
2022-09-10T00:19:06.311Z,99049.15
2022-09-10T00:19:38.117Z,99051.94
2022-09-10T00:20:10.559Z,99055.34
2022-09-10T00:20:50.199Z,99053.97
2022-09-10T00:21:22.213Z,99055.38
2022-09-10T00:21:54.174Z,99052.55
2022-09-10T00:22:25.983Z,99054.23
2022-09-10T00:22:57.837Z,99056.57
2022-09-10T00:23:30.485Z,99055.97
2022-09-10T00:24:04.698Z,99058.41
2022-09-10T00:24:36.490Z,99058.32
2022-09-10T00:25:08.641Z,99057.06
2022-09-10T00:25:40.632Z,99057.08
2022-09-10T00:26:18.640Z,99057.92
2022-09-10T00:26:50.924Z,99059.19
2022-09-10T00:27:23.720Z,99060.39
2022-09-10T00:27:55.517Z,99058.73
2022-09-10T00:28:28.145Z,99060.89
2022-09-10T00:28:59.968Z,99065.20
2022-09-10T00:29:31.932Z,99062.40
2022-09-10T00:30:04.026Z,99060.00
2022-09-10T00:30:44.562Z,99061.14
2022-09-10T00:31:17.343Z,99061.38
2022-09-10T00:31:49.636Z,99059.67
2022-09-10T00:32:21.739Z,99057.03
2022-09-10T00:32:56.290Z,99059.26
2022-09-10T00:33:29.543Z,99060.29
2022-09-10T00:34:02.827Z,99056.45
2022-09-10T00:34:34.702Z,99057.02
2022-09-10T00:35:07.812Z,99056.38
2022-09-10T00:35:40.117Z,99056.73
2022-09-10T00:36:19.014Z,99056.94
2022-09-10T00:36:50.775Z,99054.48
2022-09-10T00:37:22.516Z,99056.06
2022-09-10T00:37:54.288Z,99053.56
2022-09-10T00:38:31.148Z,99055.59
2022-09-10T00:39:07.219Z,99056.94
2022-09-10T00:39:39.151Z,99056.48
2022-09-10T00:40:11.042Z,99056.81
2022-09-10T00:40:43.204Z,99055.46
2022-09-10T00:41:16.909Z,99054.13
2022-09-10T00:41:49.080Z,99055.79
2022-09-10T00:42:21.074Z,99053.38
2022-09-10T00:42:52.885Z,99050.70
2022-09-10T00:43:24.896Z,99050.45
2022-09-10T00:43:59.452Z,99051.27
2022-09-10T00:44:37.687Z,99048.17
2022-09-10T00:45:34.586Z,99047.89
2022-09-10T00:46:06.511Z,99042.44
2022-09-10T00:46:51.327Z,99044.11
2022-09-10T00:47:28.596Z,99045.13
2022-09-10T00:48:26.864Z,99044.48
2022-09-10T00:49:02.559Z,99041.99
2022-09-10T00:49:41.281Z,99044.93
2022-09-10T00:50:27.544Z,99049.08
2022-09-10T00:51:04.495Z,99049.86
2022-09-10T00:51:36.941Z,99056.63
2022-09-10T00:52:09.555Z,99056.08
2022-09-10T00:52:42.721Z,99057.63
2022-09-10T00:53:17.899Z,99060.52
2022-09-10T00:53:50.474Z,99061.61
2022-09-10T00:54:26.543Z,99061.61
2022-09-10T00:54:58.986Z,99058.97
2022-09-10T00:55:31.314Z,99063.00
2022-09-10T00:56:04.809Z,99058.11
2022-09-10T00:56:37.148Z,99056.10
2022-09-10T00:57:13.535Z,99054.83
2022-09-10T00:57:48.979Z,99056.21
2022-09-10T00:58:22.210Z,99052.39
2022-09-10T00:58:54.891Z,99052.90
2022-09-10T00:59:27.875Z,99052.79
2022-09-10T01:00:04.868Z,99048.36
2022-09-10T01:00:37.608Z,99047.69
2022-09-10T01:01:10.493Z,99046.48
2022-09-10T01:01:42.855Z,99043.89
2022-09-10T01:02:14.639Z,99045.15
2022-09-10T01:02:46.867Z,99045.67
2022-09-10T01:03:22.427Z,99047.27
2022-09-10T01:03:57.059Z,99045.27
2022-09-10T01:04:28.814Z,99045.52
2022-09-10T01:05:02.958Z,99043.52
2022-09-10T01:05:34.742Z,99046.90
2022-09-10T01:06:06.883Z,99047.75
2022-09-10T01:06:41.071Z,99048.23
2022-09-10T01:07:15.318Z,99048.84
2022-09-10T01:07:47.789Z,99049.35
2022-09-10T01:08:19.719Z,99047.45
2022-09-10T01:08:52.037Z,99046.92
2022-09-10T01:09:25.034Z,99048.88
2022-09-10T01:09:59.496Z,99047.02
2022-09-10T01:10:40.264Z,99045.51
2022-09-10T01:11:11.907Z,99045.66
2022-09-10T01:12:06.706Z,99047.38
2022-09-10T01:13:13.971Z,99045.30
2022-09-10T01:14:10.005Z,99045.31
2022-09-10T01:15:20.211Z,99044.80
2022-09-10T01:16:22.015Z,99046.64
2022-09-10T01:17:16.737Z,99042.78
2022-09-10T01:17:51.537Z,99043.36
2022-09-10T01:18:33.574Z,99040.34
2022-09-10T01:19:17.072Z,99036.98
2022-09-10T01:20:26.532Z,99038.41
2022-09-10T01:21:27.359Z,99035.91
2022-09-10T01:22:21.667Z,99035.42
2022-09-10T01:23:17.071Z,99033.31
2022-09-10T01:24:20.945Z,99031.91
2022-09-10T01:25:02.645Z,99028.30
2022-09-10T01:25:45.192Z,99025.75
2022-09-10T01:26:47.450Z,99022.61
2022-09-10T01:27:39.620Z,99022.38
2022-09-10T01:28:55.968Z,99018.84
2022-09-10T01:29:46.732Z,99015.17
2022-09-10T01:30:28.419Z,99012.70
2022-09-10T01:31:11.622Z,99006.18
2022-09-10T01:31:55.342Z,99005.98
2022-09-10T01:32:34.137Z,99001.67
2022-09-10T01:33:16.387Z,99001.38
2022-09-10T01:33:58.889Z,99000.61
2022-09-10T01:34:41.317Z,99001.79
2022-09-10T01:35:25.183Z,98997.99
2022-09-10T01:36:01.850Z,98998.45
2022-09-10T01:36:38.766Z,98998.04
2022-09-10T01:37:17.870Z,98999.06
2022-09-10T01:37:54.836Z,98999.45
2022-09-10T01:38:35.092Z,98998.14
2022-09-10T01:39:07.849Z,99000.33
2022-09-10T01:39:41.209Z,98999.39
2022-09-10T01:40:14.733Z,99000.16
2022-09-10T01:40:47.479Z,98997.55
2022-09-10T01:41:23.345Z,98997.64
2022-09-10T01:41:55.135Z,99000.08
2022-09-10T01:42:28.034Z,99001.27
2022-09-10T01:43:01.727Z,98998.98
2022-09-10T01:43:34.749Z,98999.86
2022-09-10T01:44:30.814Z,99001.54
2022-09-10T01:45:02.565Z,99002.42
2022-09-10T01:46:00.327Z,99002.15
2022-09-10T01:46:54.806Z,99004.99
2022-09-10T01:47:37.035Z,99002.80
2022-09-10T01:48:27.976Z,99004.34
2022-09-10T01:49:08.813Z,99004.14
2022-09-10T01:49:40.391Z,99005.85
2022-09-10T01:51:04.087Z,99006.49
2022-09-10T01:51:57.389Z,99009.66
2022-09-10T01:52:35.898Z,99007.16
2022-09-10T01:53:33.009Z,99008.91
2022-09-10T01:54:13.549Z,99011.15
2022-09-10T01:55:16.726Z,99011.92
2022-09-10T01:56:24.241Z,99009.40
2022-09-10T01:57:39.359Z,99014.37
2022-09-10T01:58:37.461Z,99013.52
2022-09-10T01:59:28.914Z,99014.16
2022-09-10T02:00:03.987Z,99015.29
2022-09-10T02:00:40.615Z,99015.91
2022-09-10T02:01:25.774Z,99012.51
2022-09-10T02:02:12.837Z,99011.88
2022-09-10T02:02:57.442Z,99010.98
2022-09-10T02:03:31.594Z,99012.65
2022-09-10T02:04:08.259Z,99010.77
2022-09-10T02:04:43.229Z,99012.15
2022-09-10T02:05:19.418Z,99005.55
2022-09-10T02:05:53.534Z,99003.70
2022-09-10T02:06:29.297Z,99002.55
2022-09-10T02:07:03.889Z,98997.27
2022-09-10T02:07:36.939Z,99000.64
2022-09-10T02:08:14.119Z,98995.70
2022-09-10T02:08:51.550Z,98995.58
2022-09-10T02:09:24.054Z,98991.88
2022-09-10T02:09:56.999Z,98994.88
2022-09-10T02:10:29.059Z,98996.35
2022-09-10T02:11:05.752Z,98993.78
2022-09-10T02:11:47.280Z,98990.83
2022-09-10T02:12:21.126Z,98993.45
2022-09-10T02:12:53.813Z,98994.67
2022-09-10T02:13:28.284Z,98990.73
2022-09-10T02:13:59.988Z,98992.85
2022-09-10T02:14:31.851Z,98990.61
2022-09-10T02:15:05.367Z,98989.11
2022-09-10T02:15:38.007Z,98990.90
2022-09-10T02:16:14.843Z,98987.02
2022-09-10T02:16:54.603Z,98989.73
2022-09-10T02:17:33.607Z,98988.27
2022-09-10T02:18:06.250Z,98988.64
2022-09-10T02:18:39.776Z,98991.42
2022-09-10T02:19:12.563Z,98990.29
2022-09-10T02:19:48.179Z,98993.46
2022-09-10T02:20:21.683Z,98993.75
2022-09-10T02:20:55.776Z,98997.59
2022-09-10T02:21:28.131Z,99001.78
2022-09-10T02:22:00.531Z,98999.65
2022-09-10T02:22:35.875Z,99001.38
2022-09-10T02:23:10.320Z,99000.52
2022-09-10T02:23:46.073Z,99001.98
2022-09-10T02:24:17.779Z,99002.27
2022-09-10T02:24:50.319Z,98999.69
2022-09-10T02:25:23.875Z,99002.23
2022-09-10T02:25:55.620Z,98999.02
2022-09-10T02:26:27.592Z,98997.27
2022-09-10T02:27:00.282Z,99000.00
2022-09-10T02:27:32.431Z,98997.59
2022-09-10T02:28:06.072Z,98995.93
2022-09-10T02:28:38.347Z,98995.16
2022-09-10T02:29:13.585Z,98995.85
2022-09-10T02:29:46.634Z,98994.30
2022-09-10T02:30:19.836Z,98994.06
2022-09-10T02:30:51.881Z,98993.66
2022-09-10T02:31:23.946Z,98992.20
2022-09-10T02:31:55.818Z,98994.61
2022-09-10T02:32:28.305Z,98994.79
2022-09-10T02:33:00.103Z,98992.98
2022-09-10T02:33:32.366Z,98993.08
2022-09-10T02:34:04.253Z,98998.52
2022-09-10T02:34:36.232Z,98994.83
2022-09-10T02:35:08.465Z,98989.81
2022-09-10T02:35:40.143Z,98993.61
2022-09-10T02:36:12.154Z,98993.29
2022-09-10T02:36:44.140Z,98994.59
2022-09-10T02:37:16.439Z,98993.80
2022-09-10T02:37:50.322Z,98994.92
2022-09-10T02:38:22.091Z,98992.10
2022-09-10T02:38:56.373Z,98993.16
2022-09-10T02:39:28.326Z,98993.44
2022-09-10T02:40:00.313Z,98997.80
2022-09-10T02:40:32.231Z,98994.79
2022-09-10T02:41:04.083Z,98997.55
2022-09-10T02:41:36.323Z,98996.08
2022-09-10T02:42:08.196Z,98994.13
2022-09-10T02:42:39.969Z,98994.13
2022-09-10T02:43:12.108Z,98994.94
2022-09-10T02:43:44.905Z,98995.18
2022-09-10T02:44:17.257Z,98994.29
2022-09-10T02:44:49.417Z,98991.15
2022-09-10T02:45:21.170Z,98994.09
2022-09-10T02:45:57.399Z,98988.35
2022-09-10T02:46:29.771Z,98989.02
2022-09-10T02:47:01.597Z,98987.20
2022-09-10T02:47:33.349Z,98984.88
2022-09-10T02:48:05.112Z,98982.44
2022-09-10T02:48:36.924Z,98982.29
2022-09-10T02:49:09.599Z,98979.91
2022-09-10T02:49:41.467Z,98981.89
2022-09-10T02:50:13.269Z,98979.80
2022-09-10T02:50:45.708Z,98979.95
2022-09-10T02:51:17.427Z,98976.08
2022-09-10T02:51:52.123Z,98976.06
2022-09-10T02:52:24.065Z,98974.34
2022-09-10T02:52:55.764Z,98973.04
2022-09-10T02:53:27.766Z,98975.33
2022-09-10T02:53:59.653Z,98970.77
2022-09-10T02:54:32.206Z,98969.95
2022-09-10T02:55:04.116Z,98972.49
2022-09-10T02:55:35.949Z,98970.27
2022-09-10T02:56:08.194Z,98973.85
2022-09-10T02:56:39.995Z,98971.11
2022-09-10T02:57:11.777Z,98972.55
2022-09-10T02:57:43.765Z,98972.83
2022-09-10T02:58:16.402Z,98977.14
2022-09-10T02:58:48.320Z,98973.44
2022-09-10T02:59:20.203Z,98974.09
2022-09-10T02:59:53.505Z,98974.73
2022-09-10T03:00:25.531Z,98980.23
2022-09-10T03:01:08.370Z,98976.09
2022-09-10T03:01:40.177Z,98974.14
2022-09-10T03:02:12.143Z,98975.35
2022-09-10T03:02:43.965Z,98972.58
2022-09-10T03:03:16.765Z,98970.72
2022-09-10T03:03:54.611Z,98972.30
2022-09-10T03:04:26.437Z,98971.53
2022-09-10T03:04:58.633Z,98969.22
2022-09-10T03:05:30.444Z,98968.89
2022-09-10T03:06:03.686Z,98975.17
2022-09-10T03:06:36.614Z,98966.98
2022-09-10T03:07:08.423Z,98968.96
2022-09-10T03:07:40.335Z,98968.60
2022-09-10T03:08:12.111Z,98969.98
2022-09-10T03:08:43.902Z,98971.28
2022-09-10T03:09:16.724Z,98966.52
2022-09-10T03:09:49.612Z,98969.85
2022-09-10T03:10:21.526Z,98973.71
2022-09-10T03:10:53.472Z,98968.64
2022-09-10T03:11:26.930Z,98968.15
2022-09-10T03:11:59.335Z,98969.05
2022-09-10T03:12:31.417Z,98968.86
2022-09-10T03:13:03.244Z,98969.53
2022-09-10T03:13:35.056Z,98967.05
2022-09-10T03:14:10.500Z,98965.02
2022-09-10T03:14:43.083Z,98965.27
2022-09-10T03:15:15.195Z,98963.64
2022-09-10T03:15:47.057Z,98963.77
2022-09-10T03:16:20.175Z,98965.42
2022-09-10T03:16:52.248Z,98964.52
2022-09-10T03:17:24.883Z,98965.50
2022-09-10T03:17:56.698Z,98963.98
2022-09-10T03:18:28.465Z,98963.02
2022-09-10T03:19:00.848Z,98963.71
2022-09-10T03:19:32.565Z,98964.20
2022-09-10T03:20:04.863Z,98960.85
2022-09-10T03:20:36.543Z,98958.54
2022-09-10T03:21:17.923Z,98959.51
2022-09-10T03:21:49.715Z,98960.79
2022-09-10T03:22:21.491Z,98957.71
2022-09-10T03:22:53.236Z,98958.49
2022-09-10T03:23:26.752Z,98956.54
2022-09-10T03:23:58.499Z,98955.06
2022-09-10T03:24:30.269Z,98958.48
2022-09-10T03:25:02.062Z,98955.52
2022-09-10T03:25:33.908Z,98959.63
2022-09-10T03:26:06.373Z,98957.42
2022-09-10T03:26:38.392Z,98957.27
2022-09-10T03:27:10.404Z,98955.60
2022-09-10T03:27:42.185Z,98957.02
2022-09-10T03:28:15.153Z,98955.59
2022-09-10T03:28:47.846Z,98957.83
2022-09-10T03:29:20.550Z,98951.39
2022-09-10T03:29:52.335Z,98953.78
2022-09-10T03:30:24.229Z,98954.86
2022-09-10T03:30:56.162Z,98949.65
2022-09-10T03:31:28.194Z,98949.48
2022-09-10T03:32:00.851Z,98947.23
2022-09-10T03:32:32.661Z,98944.89
2022-09-10T03:33:04.442Z,98940.25
2022-09-10T03:33:37.481Z,98939.13
2022-09-10T03:34:12.153Z,98937.70
2022-09-10T03:34:43.879Z,98938.33
2022-09-10T03:35:16.376Z,98939.16
2022-09-10T03:35:48.620Z,98933.88
2022-09-10T03:36:22.294Z,98937.08
2022-09-10T03:36:54.249Z,98936.42
2022-09-10T03:37:26.313Z,98938.27
2022-09-10T03:37:58.012Z,98938.42
2022-09-10T03:38:29.923Z,98939.19
2022-09-10T03:39:01.700Z,98936.16
2022-09-10T03:39:33.565Z,98936.77
2022-09-10T03:40:07.478Z,98938.63
2022-09-10T03:40:39.671Z,98933.73
2022-09-10T03:41:11.381Z,98931.17
2022-09-10T03:41:44.871Z,98933.36
2022-09-10T03:42:16.691Z,98930.61
2022-09-10T03:42:48.593Z,98925.55
2022-09-10T03:43:22.062Z,98924.11
2022-09-10T03:43:55.259Z,98923.77
2022-09-10T03:44:28.000Z,98925.17
2022-09-10T03:44:59.995Z,98920.77
2022-09-10T03:45:32.108Z,98920.38
2022-09-10T03:46:04.966Z,98918.80
2022-09-10T03:46:37.820Z,98922.15
2022-09-10T03:47:11.370Z,98922.77
2022-09-10T03:47:43.423Z,98921.42
2022-09-10T03:48:19.356Z,98918.85
2022-09-10T03:48:55.213Z,98920.50
2022-09-10T03:49:28.277Z,98922.59
2022-09-10T03:50:00.057Z,98918.08
2022-09-10T03:50:31.781Z,98918.11
2022-09-10T03:51:04.091Z,98921.98
2022-09-10T03:51:35.992Z,98920.73
2022-09-10T03:52:12.043Z,98920.77
2022-09-10T03:52:43.776Z,98922.29
2022-09-10T03:53:17.616Z,98921.63
2022-09-10T03:53:49.379Z,98922.65
2022-09-10T03:54:21.256Z,98922.21
2022-09-10T03:54:53.110Z,98920.82
2022-09-10T03:55:24.876Z,98922.16
2022-09-10T03:55:56.590Z,98926.39
2022-09-10T03:56:28.466Z,98926.19
2022-09-10T03:57:02.181Z,98922.36
2022-09-10T03:57:34.018Z,98924.02
2022-09-10T03:58:06.051Z,98926.44
2022-09-10T03:58:38.569Z,98922.69
2022-09-10T03:59:12.984Z,98920.46
2022-09-10T03:59:45.642Z,98922.85
2022-09-10T04:00:17.689Z,98921.71
2022-09-10T04:00:49.507Z,98916.14
2022-09-10T04:01:21.255Z,98917.98
2022-09-10T04:01:53.151Z,98915.08
2022-09-10T04:02:25.046Z,98916.08
2022-09-10T04:02:58.166Z,98919.41
2022-09-10T04:03:30.224Z,98916.30
2022-09-10T04:04:02.682Z,98914.38
2022-09-10T04:04:36.946Z,98912.28
2022-09-10T04:05:09.012Z,98913.98
2022-09-10T04:05:45.277Z,98913.41
2022-09-10T04:06:17.228Z,98912.60
2022-09-10T04:06:50.335Z,98910.46
2022-09-10T04:07:22.291Z,98912.16
2022-09-10T04:07:54.710Z,98906.92
2022-09-10T04:08:26.590Z,98909.25
2022-09-10T04:08:59.748Z,98909.73
2022-09-10T04:09:32.120Z,98902.88
2022-09-10T04:10:04.892Z,98904.55
2022-09-10T04:10:38.122Z,98900.44
2022-09-10T04:11:10.674Z,98901.49
2022-09-10T04:11:42.444Z,98898.56
2022-09-10T04:12:14.688Z,98899.14
2022-09-10T04:12:48.467Z,98897.39
2022-09-10T04:13:20.239Z,98897.27
2022-09-10T04:13:52.567Z,98895.44
2022-09-10T04:14:24.619Z,98897.92
2022-09-10T04:14:56.642Z,98893.27
2022-09-10T04:15:28.705Z,98893.92
2022-09-10T04:16:01.289Z,98893.92
2022-09-10T04:16:33.270Z,98892.39
2022-09-10T04:17:05.287Z,98889.91
2022-09-10T04:17:37.064Z,98892.05
2022-09-10T04:18:09.523Z,98894.27
2022-09-10T04:18:41.747Z,98889.41
2022-09-10T04:19:13.560Z,98892.42
2022-09-10T04:19:45.272Z,98891.45
2022-09-10T04:20:24.869Z,98892.95
2022-09-10T04:20:56.606Z,98893.11
2022-09-10T04:21:28.775Z,98892.91
2022-09-10T04:22:00.478Z,98894.55
2022-09-10T04:22:32.393Z,98896.16
2022-09-10T04:23:05.227Z,98891.30
2022-09-10T04:23:37.631Z,98893.77
2022-09-10T04:24:12.605Z,98889.79
2022-09-10T04:24:44.410Z,98894.23
2022-09-10T04:25:17.062Z,98893.33
2022-09-10T04:25:49.207Z,98894.79
2022-09-10T04:26:22.136Z,98895.85
2022-09-10T04:26:54.008Z,98900.23
2022-09-10T04:27:26.367Z,98900.98
2022-09-10T04:27:58.203Z,98897.88
2022-09-10T04:28:30.812Z,98902.72
2022-09-10T04:29:02.507Z,98901.89
2022-09-10T04:29:34.312Z,98900.96
2022-09-10T04:30:07.042Z,98902.22
2022-09-10T04:30:39.955Z,98902.70
2022-09-10T04:31:12.007Z,98901.17
2022-09-10T04:31:46.030Z,98903.64
2022-09-10T04:32:17.968Z,98901.71
2022-09-10T04:32:50.015Z,98899.04
2022-09-10T04:33:21.798Z,98897.08
2022-09-10T04:33:53.535Z,98898.63
2022-09-10T04:34:25.761Z,98894.80
2022-09-10T04:34:58.668Z,98892.48
2022-09-10T04:35:30.520Z,98890.27
2022-09-10T04:36:03.886Z,98892.65
2022-09-10T04:36:35.760Z,98888.23
2022-09-10T04:37:07.551Z,98887.30
2022-09-10T04:37:39.324Z,98885.14
2022-09-10T04:38:11.319Z,98879.47
2022-09-10T04:38:43.798Z,98884.33
2022-09-10T04:39:16.618Z,98882.66
2022-09-10T04:39:48.573Z,98882.55
2022-09-10T04:40:20.387Z,98886.58
2022-09-10T04:40:52.247Z,98882.96
2022-09-10T04:41:24.157Z,98885.89
2022-09-10T04:41:55.911Z,98884.66
2022-09-10T04:42:28.116Z,98887.52
2022-09-10T04:43:00.617Z,98892.89
2022-09-10T04:43:32.481Z,98887.94
2022-09-10T04:44:04.371Z,98894.58
2022-09-10T04:44:36.556Z,98890.70
2022-09-10T04:45:09.320Z,98893.67
2022-09-10T04:45:41.099Z,98891.31
2022-09-10T04:46:12.983Z,98886.60
2022-09-10T04:46:45.040Z,98888.39
2022-09-10T04:47:17.569Z,98888.27
2022-09-10T04:47:49.448Z,98886.36
2022-09-10T04:48:22.818Z,98887.30
2022-09-10T04:48:54.558Z,98885.95
2022-09-10T04:49:26.340Z,98886.36
2022-09-10T04:49:58.145Z,98883.01
2022-09-10T04:50:30.031Z,98884.49
2022-09-10T04:51:17.984Z,98883.93
2022-09-10T04:51:50.267Z,98883.19
2022-09-10T04:52:23.745Z,98878.33
2022-09-10T04:52:55.662Z,98878.45
2022-09-10T04:53:27.958Z,98877.73
2022-09-10T04:53:59.864Z,98877.17
2022-09-10T04:54:33.369Z,98877.11
2022-09-10T04:55:06.069Z,98871.38
2022-09-10T04:55:40.285Z,98869.58
2022-09-10T04:56:12.544Z,98873.16
2022-09-10T04:56:46.441Z,98871.30
2022-09-10T04:57:18.166Z,98870.05
2022-09-10T04:57:49.926Z,98869.85
2022-09-10T04:58:22.316Z,98872.65
2022-09-10T04:58:54.271Z,98874.31
2022-09-10T04:59:29.157Z,98874.14
2022-09-10T05:00:01.583Z,98878.11
2022-09-10T05:00:33.439Z,98877.37
2022-09-10T05:01:05.371Z,98877.65
2022-09-10T05:01:37.349Z,98879.55
2022-09-10T05:02:09.289Z,98881.63
2022-09-10T05:02:41.160Z,98882.08
2022-09-10T05:03:14.247Z,98880.96
2022-09-10T05:03:46.066Z,98880.87
2022-09-10T05:04:18.303Z,98883.52
2022-09-10T05:04:50.460Z,98880.27
2022-09-10T05:05:22.414Z,98877.76
2022-09-10T05:05:54.268Z,98877.31
2022-09-10T05:06:26.254Z,98879.67
2022-09-10T05:06:58.205Z,98882.75
2022-09-10T05:07:30.575Z,98879.22
2022-09-10T05:08:05.310Z,98881.70
2022-09-10T05:08:37.302Z,98879.73
2022-09-10T05:09:09.259Z,98879.27
2022-09-10T05:09:41.078Z,98880.56
2022-09-10T05:10:13.122Z,98876.36
2022-09-10T05:10:45.048Z,98884.23
2022-09-10T05:11:19.339Z,98882.80
2022-09-10T05:11:51.217Z,98884.65
2022-09-10T05:12:23.801Z,98889.57
2022-09-10T05:12:55.507Z,98888.34
2022-09-10T05:13:28.110Z,98891.67
2022-09-10T05:14:00.161Z,98889.31
2022-09-10T05:14:33.256Z,98892.56
2022-09-10T05:15:06.778Z,98893.98
2022-09-10T05:15:41.136Z,98894.80
2022-09-10T05:16:13.785Z,98893.86
2022-09-10T05:16:45.834Z,98896.17
2022-09-10T05:17:17.820Z,98893.69
2022-09-10T05:17:49.705Z,98891.80
2022-09-10T05:18:21.741Z,98892.21
2022-09-10T05:18:54.089Z,98887.41
2022-09-10T05:19:26.061Z,98886.89
2022-09-10T05:19:57.933Z,98888.44
2022-09-10T05:20:29.807Z,98887.89
2022-09-10T05:21:01.617Z,98882.83
2022-09-10T05:21:33.523Z,98881.01
2022-09-10T05:22:05.320Z,98882.61
2022-09-10T05:22:40.494Z,98876.86
2022-09-10T05:23:12.868Z,98876.29
2022-09-10T05:23:44.843Z,98874.13
2022-09-10T05:24:16.724Z,98875.15
2022-09-10T05:24:48.938Z,98873.55
2022-09-10T05:25:23.964Z,98875.52
2022-09-10T05:25:56.635Z,98873.33
2022-09-10T05:26:28.440Z,98869.63
2022-09-10T05:27:00.472Z,98875.77
2022-09-10T05:27:32.410Z,98875.67
2022-09-10T05:28:05.618Z,98876.25
2022-09-10T05:28:37.496Z,98878.04
2022-09-10T05:29:10.859Z,98877.83
2022-09-10T05:29:43.167Z,98879.05
2022-09-10T05:30:16.779Z,98876.60
2022-09-10T05:30:51.780Z,98875.55
2022-09-10T05:31:24.102Z,98879.16
2022-09-10T05:31:55.937Z,98876.85
2022-09-10T05:32:28.426Z,98876.32
2022-09-10T05:33:01.260Z,98877.95
2022-09-10T05:33:33.098Z,98869.79
2022-09-10T05:34:04.945Z,98869.86
2022-09-10T05:34:39.115Z,98875.01
2022-09-10T05:35:10.957Z,98875.17
2022-09-10T05:35:43.165Z,98877.46
2022-09-10T05:36:15.004Z,98874.73
2022-09-10T05:36:47.850Z,98875.10
2022-09-10T05:37:19.788Z,98875.42
2022-09-10T05:37:51.677Z,98873.30
2022-09-10T05:38:24.598Z,98874.57
2022-09-10T05:38:59.622Z,98874.69
2022-09-10T05:39:31.629Z,98872.33
2022-09-10T05:40:06.152Z,98875.02
2022-09-10T05:40:38.122Z,98872.73
2022-09-10T05:41:10.446Z,98872.83
2022-09-10T05:41:43.455Z,98872.38
2022-09-10T05:42:15.552Z,98872.75
2022-09-10T05:42:48.888Z,98868.75
2022-09-10T05:43:20.633Z,98872.79
2022-09-10T05:43:52.432Z,98869.66
2022-09-10T05:44:24.412Z,98871.68
2022-09-10T05:44:56.771Z,98867.36
2022-09-10T05:45:29.683Z,98866.42
2022-09-10T05:46:01.793Z,98866.63
2022-09-10T05:46:33.748Z,98864.31
2022-09-10T05:47:06.227Z,98861.14
2022-09-10T05:47:38.319Z,98860.85
2022-09-10T05:48:10.099Z,98857.54
2022-09-10T05:48:42.684Z,98856.56
2022-09-10T05:49:14.892Z,98852.38
2022-09-10T05:49:47.508Z,98852.69
2022-09-10T05:50:21.379Z,98847.92
2022-09-10T05:50:53.271Z,98848.66
2022-09-10T05:51:29.343Z,98845.23
2022-09-10T05:52:01.341Z,98852.16
2022-09-10T05:52:33.780Z,98845.14
2022-09-10T05:53:05.869Z,98842.76
2022-09-10T05:53:37.791Z,98846.61
2022-09-10T05:54:10.850Z,98845.08
2022-09-10T05:54:44.275Z,98848.20
2022-09-10T05:55:16.845Z,98849.27
2022-09-10T05:55:49.339Z,98848.95
2022-09-10T05:56:21.266Z,98853.16
2022-09-10T05:56:53.735Z,98853.18
2022-09-10T05:57:26.380Z,98852.86
2022-09-10T05:57:58.992Z,98855.69
2022-09-10T05:58:30.996Z,98856.56
2022-09-10T05:59:03.798Z,98857.33
2022-09-10T05:59:36.197Z,98859.12
2022-09-10T06:00:09.461Z,98858.92
2022-09-10T06:00:42.765Z,98859.54
2022-09-10T06:01:14.989Z,98859.36
2022-09-10T06:01:46.863Z,98860.75
2022-09-10T06:02:23.821Z,98858.96
2022-09-10T06:02:56.833Z,98861.52
2022-09-10T06:03:29.178Z,98861.40
2022-09-10T06:04:01.296Z,98857.94
2022-09-10T06:04:33.241Z,98858.56
2022-09-10T06:05:05.412Z,98857.64
2022-09-10T06:05:37.552Z,98856.75
2022-09-10T06:06:09.604Z,98856.32
2022-09-10T06:06:41.391Z,98853.90
2022-09-10T06:07:13.476Z,98854.34
2022-09-10T06:07:47.644Z,98856.38
2022-09-10T06:08:23.712Z,98852.64
2022-09-10T06:08:56.153Z,98854.98
2022-09-10T06:09:28.407Z,98853.09
2022-09-10T06:10:00.393Z,98857.22
2022-09-10T06:10:32.477Z,98856.18
2022-09-10T06:11:05.855Z,98859.65
2022-09-10T06:11:38.645Z,98860.25
2022-09-10T06:12:10.448Z,98860.27
2022-09-10T06:12:51.669Z,98861.42
2022-09-10T06:13:24.486Z,98860.40
2022-09-10T06:13:57.507Z,98859.59
2022-09-10T06:14:29.639Z,98858.35
2022-09-10T06:15:03.408Z,98860.64
2022-09-10T06:15:35.761Z,98861.28
2022-09-10T06:16:08.316Z,98860.10
2022-09-10T06:16:41.164Z,98865.30
2022-09-10T06:17:13.039Z,98862.19
2022-09-10T06:17:45.607Z,98860.42
2022-09-10T06:18:17.384Z,98859.86
2022-09-10T06:18:49.170Z,98862.59
2022-09-10T06:19:21.564Z,98860.56
2022-09-10T06:19:53.409Z,98860.60
2022-09-10T06:20:25.205Z,98859.91
2022-09-10T06:21:06.472Z,98856.73
2022-09-10T06:21:38.970Z,98857.80
2022-09-10T06:22:12.226Z,98852.14
2022-09-10T06:22:44.193Z,98850.96
2022-09-10T06:23:16.534Z,98850.71
2022-09-10T06:23:53.512Z,98846.36
2022-09-10T06:24:25.395Z,98847.61
2022-09-10T06:24:57.506Z,98845.30
2022-09-10T06:25:30.797Z,98846.40
2022-09-10T06:26:05.507Z,98844.48
2022-09-10T06:26:37.361Z,98844.45
2022-09-10T06:27:09.323Z,98841.07
2022-09-10T06:27:41.364Z,98839.89
2022-09-10T06:28:14.304Z,98837.64
2022-09-10T06:28:47.428Z,98837.60
2022-09-10T06:29:19.672Z,98836.05
2022-09-10T06:29:52.140Z,98834.23
2022-09-10T06:30:24.331Z,98834.27
2022-09-10T06:30:56.201Z,98834.26
2022-09-10T06:31:28.484Z,98831.30
2022-09-10T06:32:00.595Z,98835.80
2022-09-10T06:32:32.729Z,98831.97
2022-09-10T06:33:04.759Z,98834.30
2022-09-10T06:33:36.573Z,98832.80
2022-09-10T06:34:08.580Z,98836.37
2022-09-10T06:34:40.565Z,98833.89
2022-09-10T06:35:12.749Z,98831.69
2022-09-10T06:35:53.761Z,98831.96
2022-09-10T06:36:28.194Z,98831.92
2022-09-10T06:37:02.166Z,98832.46
2022-09-10T06:37:34.482Z,98830.87
2022-09-10T06:38:06.467Z,98832.36
2022-09-10T06:38:39.241Z,98828.16
2022-09-10T06:39:11.027Z,98825.80
2022-09-10T06:39:42.976Z,98828.96
2022-09-10T06:40:15.294Z,98825.55
2022-09-10T06:40:55.179Z,98823.70
2022-09-10T06:41:30.644Z,98824.03
2022-09-10T06:42:02.519Z,98819.84
2022-09-10T06:42:34.417Z,98817.68
2022-09-10T06:43:06.231Z,98818.53
2022-09-10T06:43:39.777Z,98818.86